sensor_id;sensor_type;location;lat;lon;timestamp;pressure;altitude;pressure_sealevel;temperature;humidity
70103;BME280;57470;50.034;15.256;2022-11-20T00:01:05;99141.69;;;-4.92;90.46
70103;BME280;57470;50.034;15.256;2022-11-20T00:03:31;99146.06;;;-4.96;90.26
70103;BME280;57470;50.034;15.256;2022-11-20T00:06:01;99136.75;;;-5.10;90.52
70103;BME280;57470;50.034;15.256;2022-11-20T00:08:26;99140.03;;;-4.99;90.80
70103;BME280;57470;50.034;15.256;2022-11-20T00:10:52;99141.75;;;-4.98;90.61
70103;BME280;57470;50.034;15.256;2022-11-20T00:13:17;99140.09;;;-5.02;90.47
70103;BME280;57470;50.034;15.256;2022-11-20T00:15:42;99148.78;;;-5.06;89.59
70103;BME280;57470;50.034;15.256;2022-11-20T00:18:08;99136.75;;;-5.10;89.68
70103;BME280;57470;50.034;15.256;2022-11-20T00:20:33;99135.88;;;-5.11;90.32
70103;BME280;57470;50.034;15.256;2022-11-20T00:22:59;99134.19;;;-5.18;90.53
70103;BME280;57470;50.034;15.256;2022-11-20T00:25:24;99131.59;;;-5.16;90.42
70103;BME280;57470;50.034;15.256;2022-11-20T00:27:50;99131.66;;;-5.19;90.76
70103;BME280;57470;50.034;15.256;2022-11-20T00:30:15;99130.75;;;-5.17;90.87
70103;BME280;57470;50.034;15.256;2022-11-20T00:32:41;99141.97;;;-5.16;91.03
70103;BME280;57470;50.034;15.256;2022-11-20T00:35:06;99142.81;;;-5.14;90.66
70103;BME280;57470;50.034;15.256;2022-11-20T00:37:32;99144.53;;;-5.13;89.89
70103;BME280;57470;50.034;15.256;2022-11-20T00:39:57;99136.88;;;-5.25;89.99
70103;BME280;57470;50.034;15.256;2022-11-20T00:42:23;99133.44;;;-5.26;90.12
70103;BME280;57470;50.034;15.256;2022-11-20T00:44:48;99148.00;;;-5.13;90.25
70103;BME280;57470;50.034;15.256;2022-11-20T00:47:13;99148.94;;;-5.20;90.14
70103;BME280;57470;50.034;15.256;2022-11-20T00:49:39;99144.56;;;-5.15;90.07
70103;BME280;57470;50.034;15.256;2022-11-20T00:52:04;99136.78;;;-5.18;90.28
70103;BME280;57470;50.034;15.256;2022-11-20T00:54:30;99141.09;;;-5.17;89.70
70103;BME280;57470;50.034;15.256;2022-11-20T00:56:55;99134.19;;;-5.16;90.52
70103;BME280;57470;50.034;15.256;2022-11-20T00:59:20;99144.63;;;-5.21;90.12
70103;BME280;57470;50.034;15.256;2022-11-20T01:01:46;99140.28;;;-5.19;89.43
70103;BME280;57470;50.034;15.256;2022-11-20T01:04:11;99141.97;;;-5.16;89.75
70103;BME280;57470;50.034;15.256;2022-11-20T01:06:38;99133.53;;;-5.34;90.23
70103;BME280;57470;50.034;15.256;2022-11-20T01:09:11;99143.78;;;-5.23;90.62
70103;BME280;57470;50.034;15.256;2022-11-20T01:11:39;99145.34;;;-5.08;90.82
70103;BME280;57470;50.034;15.256;2022-11-20T01:14:08;99157.47;;;-5.10;90.19
70103;BME280;57470;50.034;15.256;2022-11-20T01:16:41;99144.41;;;-5.01;90.79
70103;BME280;57470;50.034;15.256;2022-11-20T01:19:10;99138.38;;;-5.05;90.20
70103;BME280;57470;50.034;15.256;2022-11-20T01:21:38;99133.41;;;-5.21;89.89
70103;BME280;57470;50.034;15.256;2022-11-20T01:24:05;99140.31;;;-5.23;90.15
70103;BME280;57470;50.034;15.256;2022-11-20T01:26:35;99139.53;;;-5.30;90.35
70103;BME280;57470;50.034;15.256;2022-11-20T01:29:02;99128.25;;;-5.24;90.81
70103;BME280;57470;50.034;15.256;2022-11-20T01:31:31;99134.19;;;-5.18;90.92
70103;BME280;57470;50.034;15.256;2022-11-20T01:33:59;99146.19;;;-5.08;90.50
70103;BME280;57470;50.034;15.256;2022-11-20T01:36:26;99140.97;;;-5.02;90.80
70103;BME280;57470;50.034;15.256;2022-11-20T01:38:54;99137.44;;;-4.98;90.98
70103;BME280;57470;50.034;15.256;2022-11-20T01:41:21;99135.69;;;-4.97;91.31
70103;BME280;57470;50.034;15.256;2022-11-20T01:44:05;99132.13;;;-4.88;91.55
70103;BME280;57470;50.034;15.256;2022-11-20T01:46:32;99141.50;;;-4.77;91.59
70103;BME280;57470;50.034;15.256;2022-11-20T01:51:33;99133.53;;;-4.62;91.99
70103;BME280;57470;50.034;15.256;2022-11-20T01:54:03;99127.38;;;-4.56;91.97
70103;BME280;57470;50.034;15.256;2022-11-20T01:56:31;99128.28;;;-4.57;92.11
70103;BME280;57470;50.034;15.256;2022-11-20T01:59:01;99122.25;;;-4.58;92.06
70103;BME280;57470;50.034;15.256;2022-11-20T02:01:29;99117.84;;;-4.53;91.88
70103;BME280;57470;50.034;15.256;2022-11-20T02:03:55;99122.19;;;-4.56;91.87
70103;BME280;57470;50.034;15.256;2022-11-20T02:06:30;99123.28;;;-4.74;93.13
70103;BME280;57470;50.034;15.256;2022-11-20T02:08:58;99123.25;;;-4.69;94.14
70103;BME280;57470;50.034;15.256;2022-11-20T02:11:23;99112.59;;;-4.48;94.18
70103;BME280;57470;50.034;15.256;2022-11-20T02:13:49;99118.66;;;-4.47;93.22
70103;BME280;57470;50.034;15.256;2022-11-20T02:18:46;99114.25;;;-4.45;91.52
70103;BME280;57470;50.034;15.256;2022-11-20T02:21:19;99114.47;;;-4.58;91.66
70103;BME280;57470;50.034;15.256;2022-11-20T02:24:03;99115.25;;;-4.53;92.06
70103;BME280;57470;50.034;15.256;2022-11-20T02:26:32;99108.44;;;-4.61;91.76
70103;BME280;57470;50.034;15.256;2022-11-20T02:29:00;99114.53;;;-4.64;91.31
70103;BME280;57470;50.034;15.256;2022-11-20T02:31:27;99109.31;;;-4.62;90.63
70103;BME280;57470;50.034;15.256;2022-11-20T02:33:58;99115.47;;;-4.69;90.20
70103;BME280;57470;50.034;15.256;2022-11-20T02:36:26;99115.47;;;-4.69;89.79
70103;BME280;57470;50.034;15.256;2022-11-20T02:38:52;99113.03;;;-4.83;89.24
70103;BME280;57470;50.034;15.256;2022-11-20T02:41:18;99112.25;;;-4.88;90.12
70103;BME280;57470;50.034;15.256;2022-11-20T02:43:44;99108.78;;;-4.87;90.30
70103;BME280;57470;50.034;15.256;2022-11-20T02:46:10;99105.44;;;-4.95;89.83
70103;BME280;57470;50.034;15.256;2022-11-20T02:48:36;99102.75;;;-4.91;89.50
70103;BME280;57470;50.034;15.256;2022-11-20T02:51:03;99093.38;;;-5.01;89.42
70103;BME280;57470;50.034;15.256;2022-11-20T02:53:29;99100.38;;;-5.06;89.60
70103;BME280;57470;50.034;15.256;2022-11-20T02:55:56;99093.44;;;-5.05;89.58
70103;BME280;57470;50.034;15.256;2022-11-20T02:58:22;99096.03;;;-5.05;89.46
70103;BME280;57470;50.034;15.256;2022-11-20T03:00:49;99094.31;;;-5.03;89.50
70103;BME280;57470;50.034;15.256;2022-11-20T03:03:15;99099.59;;;-5.11;89.63
70103;BME280;57470;50.034;15.256;2022-11-20T03:05:42;99105.78;;;-5.27;89.42
70103;BME280;57470;50.034;15.256;2022-11-20T03:08:08;99102.34;;;-5.28;89.52
70103;BME280;57470;50.034;15.256;2022-11-20T03:10:33;99098.88;;;-5.26;89.37
70103;BME280;57470;50.034;15.256;2022-11-20T03:12:59;99104.91;;;-5.26;89.89
70103;BME280;57470;50.034;15.256;2022-11-20T03:15:24;99104.03;;;-5.23;89.94
70103;BME280;57470;50.034;15.256;2022-11-20T03:17:53;99100.59;;;-5.25;89.91
70103;BME280;57470;50.034;15.256;2022-11-20T03:20:20;99099.75;;;-5.26;90.20
70103;BME280;57470;50.034;15.256;2022-11-20T03:22:45;99104.03;;;-5.23;89.72
70103;BME280;57470;50.034;15.256;2022-11-20T03:25:11;99105.75;;;-5.22;90.10
70103;BME280;57470;50.034;15.256;2022-11-20T03:27:36;99115.34;;;-5.29;89.87
70103;BME280;57470;50.034;15.256;2022-11-20T03:30:02;99111.91;;;-5.31;89.64
70103;BME280;57470;50.034;15.256;2022-11-20T03:32:28;99106.78;;;-5.37;89.75
70103;BME280;57470;50.034;15.256;2022-11-20T03:34:53;99109.41;;;-5.39;90.52
70103;BME280;57470;50.034;15.256;2022-11-20T03:37:19;99111.34;;;-5.60;91.28
70103;BME280;57470;50.034;15.256;2022-11-20T03:39:44;99117.28;;;-5.48;90.70
70103;BME280;57470;50.034;15.256;2022-11-20T03:42:10;99117.22;;;-5.45;89.63
70103;BME280;57470;50.034;15.256;2022-11-20T03:44:54;99107.63;;;-5.35;90.03
70103;BME280;57470;50.034;15.256;2022-11-20T03:47:19;99117.28;;;-5.49;89.51
70103;BME280;57470;50.034;15.256;2022-11-20T03:49:44;99111.25;;;-5.50;89.59
70103;BME280;57470;50.034;15.256;2022-11-20T03:52:10;99104.44;;;-5.60;89.47
70103;BME280;57470;50.034;15.256;2022-11-20T03:54:35;99095.75;;;-5.56;89.73
70103;BME280;57470;50.034;15.256;2022-11-20T03:57:01;99108.66;;;-5.53;89.34
70103;BME280;57470;50.034;15.256;2022-11-20T03:59:26;99107.00;;;-5.55;89.25
70103;BME280;57470;50.034;15.256;2022-11-20T04:01:52;99114.72;;;-5.52;89.46
70103;BME280;57470;50.034;15.256;2022-11-20T04:04:17;99105.25;;;-5.56;89.30
70103;BME280;57470;50.034;15.256;2022-11-20T04:06:42;99108.72;;;-5.56;89.10
70103;BME280;57470;50.034;15.256;2022-11-20T04:09:08;99102.63;;;-5.52;88.60
70103;BME280;57470;50.034;15.256;2022-11-20T04:11:35;99110.44;;;-5.56;88.93
70103;BME280;57470;50.034;15.256;2022-11-20T04:14:04;99105.38;;;-5.67;88.60
70103;BME280;57470;50.034;15.256;2022-11-20T04:16:32;99102.69;;;-5.56;89.04
70103;BME280;57470;50.034;15.256;2022-11-20T04:19:00;99107.94;;;-5.64;89.40
70103;BME280;57470;50.034;15.256;2022-11-20T04:21:26;99093.50;;;-5.88;89.61
70103;BME280;57470;50.034;15.256;2022-11-20T04:23:53;99104.53;;;-5.72;89.05
70103;BME280;57470;50.034;15.256;2022-11-20T04:26:19;99104.59;;;-5.78;89.50
70103;BME280;57470;50.034;15.256;2022-11-20T04:28:45;99106.38;;;-5.83;89.31
70103;BME280;57470;50.034;15.256;2022-11-20T04:31:17;99098.47;;;-5.71;89.18
70103;BME280;57470;50.034;15.256;2022-11-20T04:33:43;99102.00;;;-5.78;89.08
70103;BME280;57470;50.034;15.256;2022-11-20T04:36:15;99102.88;;;-5.76;89.12
70103;BME280;57470;50.034;15.256;2022-11-20T04:38:41;99105.38;;;-5.70;89.27
70103;BME280;57470;50.034;15.256;2022-11-20T04:41:08;99102.88;;;-5.76;89.44
70103;BME280;57470;50.034;15.256;2022-11-20T04:43:36;99107.19;;;-5.81;89.36
70103;BME280;57470;50.034;15.256;2022-11-20T04:46:01;99106.34;;;-5.80;89.86
70103;BME280;57470;50.034;15.256;2022-11-20T04:48:28;99096.81;;;-5.75;89.42
70103;BME280;57470;50.034;15.256;2022-11-20T04:50:54;99099.34;;;-5.69;90.01
70103;BME280;57470;50.034;15.256;2022-11-20T04:53:20;99105.38;;;-5.69;90.24
70103;BME280;57470;50.034;15.256;2022-11-20T04:55:46;99104.50;;;-5.69;90.67
70103;BME280;57470;50.034;15.256;2022-11-20T04:58:11;99096.75;;;-5.72;89.97
70103;BME280;57470;50.034;15.256;2022-11-20T05:00:37;99100.19;;;-5.65;90.07
70103;BME280;57470;50.034;15.256;2022-11-20T05:03:03;99111.34;;;-5.63;90.61
70103;BME280;57470;50.034;15.256;2022-11-20T05:05:29;99118.25;;;-5.59;90.20
70103;BME280;57470;50.034;15.256;2022-11-20T05:07:58;99111.25;;;-5.53;90.76
70103;BME280;57470;50.034;15.256;2022-11-20T05:10:27;99106.06;;;-5.51;91.18
70103;BME280;57470;50.034;15.256;2022-11-20T05:12:53;99105.09;;;-5.43;91.18
70103;BME280;57470;50.034;15.256;2022-11-20T05:15:19;99109.50;;;-5.51;91.75
70103;BME280;57470;50.034;15.256;2022-11-20T05:17:51;99089.47;;;-5.37;91.57
70103;BME280;57470;50.034;15.256;2022-11-20T05:20:17;99093.66;;;-5.23;91.81
70103;BME280;57470;50.034;15.256;2022-11-20T05:22:43;99092.84;;;-5.27;92.21
70103;BME280;57470;50.034;15.256;2022-11-20T05:25:09;99073.91;;;-5.32;92.48
70103;BME280;57470;50.034;15.256;2022-11-20T05:27:34;99078.91;;;-5.18;92.32
70103;BME280;57470;50.034;15.256;2022-11-20T05:30:00;99072.09;;;-5.25;92.81
70103;BME280;57470;50.034;15.256;2022-11-20T05:32:25;99084.03;;;-5.11;92.51
70103;BME280;57470;50.034;15.256;2022-11-20T05:34:52;99070.13;;;-5.07;92.60
70103;BME280;57470;50.034;15.256;2022-11-20T05:37:17;99069.91;;;-4.90;92.53
70103;BME280;57470;50.034;15.256;2022-11-20T05:39:42;99068.41;;;-5.08;92.85
70103;BME280;57470;50.034;15.256;2022-11-20T05:42:08;99062.97;;;-4.88;92.92
70103;BME280;57470;50.034;15.256;2022-11-20T05:44:52;99061.56;;;-5.12;93.59
70103;BME280;57470;50.034;15.256;2022-11-20T05:47:17;99059.56;;;-4.92;94.28
70103;BME280;57470;50.034;15.256;2022-11-20T05:49:42;99060.81;;;-5.21;94.68
70103;BME280;57470;50.034;15.256;2022-11-20T05:52:08;99066.88;;;-5.24;95.66
70103;BME280;57470;50.034;15.256;2022-11-20T05:54:33;99069.38;;;-5.16;97.01
70103;BME280;57470;50.034;15.256;2022-11-20T05:56:59;99067.13;;;-4.75;96.53
70103;BME280;57470;50.034;15.256;2022-11-20T05:59:24;99066.94;;;-4.63;95.95
70103;BME280;57470;50.034;15.256;2022-11-20T06:01:50;99062.47;;;-4.53;95.59
70103;BME280;57470;50.034;15.256;2022-11-20T06:04:15;99064.19;;;-4.52;95.31
70103;BME280;57470;50.034;15.256;2022-11-20T06:06:41;99070.16;;;-4.45;94.96
70103;BME280;57470;50.034;15.256;2022-11-20T06:09:06;99080.34;;;-4.33;94.74
70103;BME280;57470;50.034;15.256;2022-11-20T06:11:32;99076.88;;;-4.31;94.94
70103;BME280;57470;50.034;15.256;2022-11-20T06:13:57;99063.16;;;-4.40;94.92
70103;BME280;57470;50.034;15.256;2022-11-20T06:16:22;99061.09;;;-4.20;94.93
70103;BME280;57470;50.034;15.256;2022-11-20T06:18:48;99065.09;;;-4.01;94.67
70103;BME280;57470;50.034;15.256;2022-11-20T06:21:14;99068.38;;;-3.88;94.25
70103;BME280;57470;50.034;15.256;2022-11-20T06:23:40;99045.47;;;-4.17;94.32
70103;BME280;57470;50.034;15.256;2022-11-20T06:26:20;99050.38;;;-3.99;94.66
70103;BME280;57470;50.034;15.256;2022-11-20T06:28:46;99053.91;;;-4.03;95.33
70103;BME280;57470;50.034;15.256;2022-11-20T06:31:13;99057.25;;;-3.96;94.60
70103;BME280;57470;50.034;15.256;2022-11-20T06:33:40;99064.78;;;-3.81;94.74
70103;BME280;57470;50.034;15.256;2022-11-20T06:36:06;99059.75;;;-3.92;94.27
70103;BME280;57470;50.034;15.256;2022-11-20T06:38:31;99058.88;;;-3.91;94.08
70103;BME280;57470;50.034;15.256;2022-11-20T06:40:57;99052.66;;;-3.81;93.80
70103;BME280;57470;50.034;15.256;2022-11-20T06:43:23;99049.16;;;-3.80;93.41
70103;BME280;57470;50.034;15.256;2022-11-20T06:45:55;99065.31;;;-3.62;93.15
70103;BME280;57470;50.034;15.256;2022-11-20T06:48:23;99064.72;;;-3.76;92.56
70103;BME280;57470;50.034;15.256;2022-11-20T06:50:49;99071.38;;;-3.62;92.83
70103;BME280;57470;50.034;15.256;2022-11-20T06:53:14;99066.88;;;-3.54;92.38
70103;BME280;57470;50.034;15.256;2022-11-20T06:55:47;99072.91;;;-3.52;92.21
70103;BME280;57470;50.034;15.256;2022-11-20T06:58:13;99072.78;;;-3.46;91.98
70103;BME280;57470;50.034;15.256;2022-11-20T07:00:40;99065.91;;;-3.48;92.19
70103;BME280;57470;50.034;15.256;2022-11-20T07:03:07;99073.59;;;-3.42;91.87
70103;BME280;57470;50.034;15.256;2022-11-20T07:05:33;99064.13;;;-3.46;91.63
70103;BME280;57470;50.034;15.256;2022-11-20T07:07:58;99070.13;;;-3.41;92.27
70103;BME280;57470;50.034;15.256;2022-11-20T07:10:25;99060.66;;;-3.47;92.37
70103;BME280;57470;50.034;15.256;2022-11-20T07:12:52;99061.38;;;-3.38;92.52
70103;BME280;57470;50.034;15.256;2022-11-20T07:15:21;99068.19;;;-3.31;92.50
70103;BME280;57470;50.034;15.256;2022-11-20T07:17:47;99074.47;;;-3.43;93.22
70103;BME280;57470;50.034;15.256;2022-11-20T07:20:13;99075.88;;;-3.25;93.04
70103;BME280;57470;50.034;15.256;2022-11-20T07:22:39;99072.06;;;-3.08;93.11
70103;BME280;57470;50.034;15.256;2022-11-20T07:25:05;99077.13;;;-3.02;93.04
70103;BME280;57470;50.034;15.256;2022-11-20T07:27:31;99078.19;;;-3.12;92.48
70103;BME280;57470;50.034;15.256;2022-11-20T07:29:56;99078.03;;;-3.04;92.39
70103;BME280;57470;50.034;15.256;2022-11-20T07:32:22;99064.84;;;-2.95;92.79
70103;BME280;57470;50.034;15.256;2022-11-20T07:34:48;99063.88;;;-2.89;92.79
70103;BME280;57470;50.034;15.256;2022-11-20T07:37:13;99070.75;;;-2.87;92.53
70103;BME280;57470;50.034;15.256;2022-11-20T07:39:39;99074.94;;;-2.80;94.19
70103;BME280;57470;50.034;15.256;2022-11-20T07:42:06;99067.63;;;-3.47;93.53
70103;BME280;57470;50.034;15.256;2022-11-20T07:44:31;99055.94;;;-3.26;95.31
70103;BME280;57470;50.034;15.256;2022-11-20T07:46:57;99047.25;;;-3.24;95.24
70103;BME280;57470;50.034;15.256;2022-11-20T07:49:22;99050.81;;;-3.31;95.73
70103;BME280;57470;50.034;15.256;2022-11-20T07:51:50;99056.47;;;-3.09;95.91
70103;BME280;57470;50.034;15.256;2022-11-20T07:54:16;99057.06;;;-3.40;96.23
70103;BME280;57470;50.034;15.256;2022-11-20T07:56:41;99069.09;;;-3.32;97.62
70103;BME280;57470;50.034;15.256;2022-11-20T07:59:07;99061.72;;;-3.12;96.90
70103;BME280;57470;50.034;15.256;2022-11-20T08:01:32;99053.72;;;-3.03;97.27
70103;BME280;57470;50.034;15.256;2022-11-20T08:03:58;99055.84;;;-3.22;97.99
70103;BME280;57470;50.034;15.256;2022-11-20T08:06:23;99066.50;;;-2.91;97.12
70103;BME280;57470;50.034;15.256;2022-11-20T08:08:50;99059.22;;;-3.17;97.29
70103;BME280;57470;50.034;15.256;2022-11-20T08:11:15;99048.59;;;-2.66;97.01
70103;BME280;57470;50.034;15.256;2022-11-20T08:13:59;99051.63;;;-2.46;95.72
70103;BME280;57470;50.034;15.256;2022-11-20T08:16:40;99065.69;;;-2.54;95.49
70103;BME280;57470;50.034;15.256;2022-11-20T08:19:06;99074.56;;;-2.24;94.24
70103;BME280;57470;50.034;15.256;2022-11-20T08:21:31;99059.16;;;-2.34;93.12
70103;BME280;57470;50.034;15.256;2022-11-20T08:23:57;99060.56;;;-2.20;93.67
70103;BME280;57470;50.034;15.256;2022-11-20T08:26:24;99061.59;;;-1.92;93.77
70103;BME280;57470;50.034;15.256;2022-11-20T08:28:53;99040.69;;;-1.89;92.99
70103;BME280;57470;50.034;15.256;2022-11-20T08:31:19;99042.31;;;-1.85;93.43
70103;BME280;57470;50.034;15.256;2022-11-20T08:33:45;99041.19;;;-1.75;92.64
70103;BME280;57470;50.034;15.256;2022-11-20T08:36:10;99049.44;;;-1.59;92.51
70103;BME280;57470;50.034;15.256;2022-11-20T08:38:35;99055.44;;;-1.56;92.31
70103;BME280;57470;50.034;15.256;2022-11-20T08:41:02;99038.31;;;-1.33;92.19
70103;BME280;57470;50.034;15.256;2022-11-20T08:43:47;99036.63;;;-1.34;91.56
70103;BME280;57470;50.034;15.256;2022-11-20T08:46:12;99027.53;;;-1.21;91.43
70103;BME280;57470;50.034;15.256;2022-11-20T08:48:38;99029.09;;;-1.16;91.39
70103;BME280;57470;50.034;15.256;2022-11-20T08:51:03;99033.47;;;-1.47;92.47
70103;BME280;57470;50.034;15.256;2022-11-20T08:53:29;99027.50;;;-2.17;96.19
70103;BME280;57470;50.034;15.256;2022-11-20T08:55:54;99043.69;;;-2.06;96.00
70103;BME280;57470;50.034;15.256;2022-11-20T08:58:19;99056.47;;;-1.95;95.67
70103;BME280;57470;50.034;15.256;2022-11-20T09:00:45;99061.94;;;-1.70;96.52
70103;BME280;57470;50.034;15.256;2022-11-20T09:03:10;99060.50;;;-2.17;96.38
70103;BME280;57470;50.034;15.256;2022-11-20T09:05:38;99060.69;;;-1.90;97.03
70103;BME280;57470;50.034;15.256;2022-11-20T09:08:04;99060.41;;;-2.14;97.27
70103;BME280;57470;50.034;15.256;2022-11-20T09:10:29;99052.75;;;-2.20;97.64
70103;BME280;57470;50.034;15.256;2022-11-20T09:12:55;99046.38;;;-2.09;98.61
70103;BME280;57470;50.034;15.256;2022-11-20T09:15:21;99033.75;;;-1.58;96.87
70103;BME280;57470;50.034;15.256;2022-11-20T09:17:53;99029.88;;;-2.08;97.96
70103;BME280;57470;50.034;15.256;2022-11-20T09:20:19;99033.38;;;-2.09;97.69
70103;BME280;57470;50.034;15.256;2022-11-20T09:22:44;99028.13;;;-2.07;96.92
70103;BME280;57470;50.034;15.256;2022-11-20T09:25:10;99026.53;;;-2.14;96.88
70103;BME280;57470;50.034;15.256;2022-11-20T09:27:35;99017.88;;;-1.48;96.31
70103;BME280;57470;50.034;15.256;2022-11-20T09:30:01;99010.31;;;-1.27;95.12
70103;BME280;57470;50.034;15.256;2022-11-20T09:32:27;99003.44;;;-1.29;94.92
70103;BME280;57470;50.034;15.256;2022-11-20T09:34:52;98999.16;;;-1.63;95.28
70103;BME280;57470;50.034;15.256;2022-11-20T09:37:18;99000.81;;;-1.29;95.24
70103;BME280;57470;50.034;15.256;2022-11-20T09:39:43;98995.31;;;-1.82;94.80
70103;BME280;57470;50.034;15.256;2022-11-20T09:48:07;98990.03;;;-1.17;95.45
70103;BME280;57470;50.034;15.256;2022-11-20T09:50:57;98991.59;;;-0.82;93.57
70103;BME280;57470;50.034;15.256;2022-11-20T09:53:33;98984.56;;;-1.08;93.78
70103;BME280;57470;50.034;15.256;2022-11-20T09:56:02;98987.28;;;-0.83;93.90
70103;BME280;57470;50.034;15.256;2022-11-20T09:58:42;98973.69;;;-0.66;93.62
70103;BME280;57470;50.034;15.256;2022-11-20T10:01:31;98975.16;;;-0.58;92.71
70103;BME280;57470;50.034;15.256;2022-11-20T10:06:36;98966.38;;;-0.55;93.61
70103;BME280;57470;50.034;15.256;2022-11-20T10:09:28;98963.91;;;-0.33;92.72
70103;BME280;57470;50.034;15.256;2022-11-20T10:22:21;98968.50;;;-0.96;95.66
70103;BME280;57470;50.034;15.256;2022-11-20T10:25:00;98957.09;;;-1.21;96.50
70103;BME280;57470;50.034;15.256;2022-11-20T10:27:38;98959.16;;;-1.03;96.69
70103;BME280;57470;50.034;15.256;2022-11-20T10:30:12;98961.16;;;-1.11;97.13
70103;BME280;57470;50.034;15.256;2022-11-20T10:32:52;98957.59;;;-1.08;97.06
70103;BME280;57470;50.034;15.256;2022-11-20T10:37:53;98942.53;;;-0.99;96.82
70103;BME280;57470;50.034;15.256;2022-11-20T10:40:26;98948.72;;;-0.47;94.96
70103;BME280;57470;50.034;15.256;2022-11-20T10:42:57;98960.06;;;-0.22;93.80
70103;BME280;57470;50.034;15.256;2022-11-20T10:47:51;98955.13;;;-0.85;95.11
70103;BME280;57470;50.034;15.256;2022-11-20T10:50:20;98952.38;;;-1.08;96.19
70103;BME280;57470;50.034;15.256;2022-11-20T10:55:30;98947.53;;;-0.12;94.07
70103;BME280;57470;50.034;15.256;2022-11-20T11:00:32;98934.19;;;-0.29;94.71
70103;BME280;57470;50.034;15.256;2022-11-20T11:02:58;98917.13;;;-0.15;94.48
70103;BME280;57470;50.034;15.256;2022-11-20T11:08:03;98924.38;;;0.02;94.45
70103;BME280;57470;50.034;15.256;2022-11-20T11:10:39;98934.50;;;-0.39;95.02
70103;BME280;57470;50.034;15.256;2022-11-20T11:13:19;98941.44;;;-0.13;94.90
70103;BME280;57470;50.034;15.256;2022-11-20T11:15:45;98956.06;;;-0.33;95.69
70103;BME280;57470;50.034;15.256;2022-11-20T11:18:11;98951.19;;;-0.44;95.20
70103;BME280;57470;50.034;15.256;2022-11-20T11:20:51;98914.09;;;-0.27;94.93
70103;BME280;57470;50.034;15.256;2022-11-20T11:23:33;98912.22;;;-0.77;96.58
70103;BME280;57470;50.034;15.256;2022-11-20T11:26:01;98900.81;;;-1.00;98.71
70103;BME280;57470;50.034;15.256;2022-11-20T11:28:27;98904.13;;;-0.69;98.21
70103;BME280;57470;50.034;15.256;2022-11-20T11:30:54;98908.00;;;-0.28;98.09
70103;BME280;57470;50.034;15.256;2022-11-20T11:33:29;98913.81;;;-0.20;96.78
70103;BME280;57470;50.034;15.256;2022-11-20T11:36:00;98912.00;;;0.07;95.35
70103;BME280;57470;50.034;15.256;2022-11-20T11:38:40;98923.09;;;0.14;94.32
70103;BME280;57470;50.034;15.256;2022-11-20T11:41:09;98918.41;;;0.23;93.44
70103;BME280;57470;50.034;15.256;2022-11-20T11:43:36;98913.66;;;0.10;93.36
70103;BME280;57470;50.034;15.256;2022-11-20T11:46:32;98928.06;;;-0.04;95.02
70103;BME280;57470;50.034;15.256;2022-11-20T11:51:40;98917.31;;;-0.72;96.47
70103;BME280;57470;50.034;15.256;2022-11-20T11:54:16;98896.16;;;-0.91;97.87
70103;BME280;57470;50.034;15.256;2022-11-20T11:56:43;98895.66;;;-1.03;99.01
70103;BME280;57470;50.034;15.256;2022-11-20T11:59:14;98896.03;;;-0.88;100.00
70103;BME280;57470;50.034;15.256;2022-11-20T12:01:56;98893.50;;;-0.63;100.00
70103;BME280;57470;50.034;15.256;2022-11-20T12:04:43;98882.72;;;-1.06;99.80
70103;BME280;57470;50.034;15.256;2022-11-20T12:09:48;98881.63;;;-0.99;99.69
70103;BME280;57470;50.034;15.256;2022-11-20T12:12:20;98877.41;;;-0.51;99.82
70103;BME280;57470;50.034;15.256;2022-11-20T12:14:48;98878.81;;;-0.16;98.96
70103;BME280;57470;50.034;15.256;2022-11-20T12:17:16;98877.31;;;0.02;97.85
70103;BME280;57470;50.034;15.256;2022-11-20T12:19:43;98875.47;;;0.06;96.62
70103;BME280;57470;50.034;15.256;2022-11-20T12:30:17;98877.13;;;0.31;95.03
70103;BME280;57470;50.034;15.256;2022-11-20T12:33:02;98871.03;;;0.08;95.07
70103;BME280;57470;50.034;15.256;2022-11-20T12:44:43;98860.09;;;-0.04;94.63
70103;BME280;57470;50.034;15.256;2022-11-20T12:52:51;98870.19;;;0.54;94.82
70103;BME280;57470;50.034;15.256;2022-11-20T13:01:24;98853.06;;;0.68;93.21
70103;BME280;57470;50.034;15.256;2022-11-20T13:04:30;98849.94;;;0.81;92.77
70103;BME280;57470;50.034;15.256;2022-11-20T13:07:01;98840.78;;;0.47;93.22
70103;BME280;57470;50.034;15.256;2022-11-20T13:09:28;98835.50;;;0.49;93.64
70103;BME280;57470;50.034;15.256;2022-11-20T13:17:48;98837.09;;;0.29;95.54
70103;BME280;57470;50.034;15.256;2022-11-20T13:20:18;98825.13;;;0.24;96.14
70103;BME280;57470;50.034;15.256;2022-11-20T13:22:49;98825.41;;;-0.09;95.83
70103;BME280;57470;50.034;15.256;2022-11-20T13:25:27;98806.97;;;-0.27;97.38
70103;BME280;57470;50.034;15.256;2022-11-20T13:27:54;98822.03;;;-0.11;97.45
70103;BME280;57470;50.034;15.256;2022-11-20T13:30:24;98830.91;;;0.09;96.38
70103;BME280;57470;50.034;15.256;2022-11-20T13:35:33;98829.63;;;0.65;96.00
70103;BME280;57470;50.034;15.256;2022-11-20T13:38:05;98827.34;;;0.56;95.50
70103;BME280;57470;50.034;15.256;2022-11-20T13:40:32;98815.38;;;0.27;96.86
70103;BME280;57470;50.034;15.256;2022-11-20T13:43:18;98824.63;;;0.36;96.69
70103;BME280;57470;50.034;15.256;2022-11-20T13:45:59;98815.78;;;-0.07;96.51
70103;BME280;57470;50.034;15.256;2022-11-20T13:48:29;98803.78;;;0.11;97.18
70103;BME280;57470;50.034;15.256;2022-11-20T13:53:36;98821.56;;;0.48;96.58
70103;BME280;57470;50.034;15.256;2022-11-20T14:01:53;98817.03;;;0.07;96.87
70103;BME280;57470;50.034;15.256;2022-11-20T14:04:34;98818.91;;;-0.20;98.24
70103;BME280;57470;50.034;15.256;2022-11-20T14:07:05;98804.81;;;-0.41;99.32
70103;BME280;57470;50.034;15.256;2022-11-20T14:09:32;98805.44;;;-0.34;99.60
70103;BME280;57470;50.034;15.256;2022-11-20T14:11:58;98792.28;;;-0.31;99.67
70103;BME280;57470;50.034;15.256;2022-11-20T14:14:26;98793.63;;;-0.20;100.00
70103;BME280;57470;50.034;15.256;2022-11-20T14:17:04;98775.03;;;-0.60;100.00
70103;BME280;57470;50.034;15.256;2022-11-20T14:19:30;98788.72;;;-0.29;100.00
70103;BME280;57470;50.034;15.256;2022-11-20T14:22:23;98788.69;;;-0.04;100.00
70103;BME280;57470;50.034;15.256;2022-11-20T14:25:04;98789.53;;;0.20;100.00